Strona główna
METAR-TAF:

METAR-TAF

Lotnisko :

Lleida-Alguaire

Lleida, Hiszpania

Szerokość geograficzna: 41-43-40N, Długość geograficzna: 000-32-09E, wysokość: 350 m

Aktualna obserwacja pogody

Raport powstał 56 minut temu, godzina 18:30 UTC
Wiatr 13 kt od południowo-południowy wschód
Temperatura 26°C
Wilgotność 51%
Ciśnienie 1010 hPa
Widzialność 10 km lub więcej
Brak chmur poniżej 1500 m i brak chmur cumulonimbus

METAR: LEDA 251830Z AUTO 16013KT CAVOK 26/15 Q1010

czas: 21:26 (19:26 UTC)


TAF: brakujący

Obserwacja i prognoza pogody dla ponad 4000 lotnisk (raport METAR i TAF).

Dostępne stacje oznaczono żółtymi i czerwonymi punktami na mapie.

Najedź kursorem aby zobaczyć nazwę stacji.

Kliknij aby zobaczyć obserwacje i prognozy pogody.

Aby zmienić mapę: kliknij na zielony przycisk z czarnym krzyżykiem, aby powiększyć; na zielony przycisk z myślnikiem, aby pomniejszyć; na zielone strzałki, aby przejść do map sąsiednich.


METAR-TAF: